Time;durP1;ratioP1;P1;durP2;ratioP2;P2;SDS_P1;SDS_P2;PMS_P1;PMS_P2;Temp;Humidity;BMP_temperature;BMP_pressure;BME280_temperature;BME280_humidity;BME280_pressure;Samples;Min_cycle;Max_cycle;Signal;HPM_P1;HPM_P2
2022/11/25 00:00:15;;;;;;;7.50;3.07;;;3.40;98.00;;;;;;5011035;28;20986;-67
2022/11/25 00:02:45;;;;;;;9.50;2.10;;;3.20;98.00;;;;;;5011064;28;20461;-66
2022/11/25 00:05:12;;;;;;;3.60;2.47;;;3.10;98.00;;;;;;5011381;28;20458;-66
2022/11/25 00:07:39;;;;;;;4.23;2.73;;;3.00;98.00;;;;;;5011251;28;20448;-66
2022/11/25 00:10:10;;;;;;;4.17;2.40;;;3.00;98.00;;;;;;5010987;28;20451;-66
2022/11/25 00:12:38;;;;;;;10.07;2.93;;;3.10;98.00;;;;;;5010940;28;20457;-67
2022/11/25 00:15:05;;;;;;;2.50;1.57;;;3.10;98.00;;;;;;5010975;28;20465;-66
2022/11/25 00:17:33;;;;;;;3.00;2.07;;;3.10;98.00;;;;;;5010864;28;20464;-66
2022/11/25 00:20:00;;;;;;;4.80;3.00;;;3.00;98.00;;;;;;5012035;28;20832;-67
2022/11/25 00:22:27;;;;;;;3.00;2.43;;;2.90;98.00;;;;;;5014443;28;20484;-67
2022/11/25 00:24:55;;;;;;;4.00;2.80;;;2.90;98.00;;;;;;5014399;28;20916;-66
2022/11/25 00:27:23;;;;;;;4.27;2.10;;;2.90;98.00;;;;;;4996907;28;20461;-67
2022/11/25 00:29:50;;;;;;;3.03;1.80;;;2.90;98.00;;;;;;5014417;28;20987;-66
2022/11/25 00:32:18;;;;;;;3.20;1.63;;;2.80;98.00;;;;;;4996884;28;20511;-67
2022/11/25 00:34:45;;;;;;;1.90;1.60;;;2.90;98.00;;;;;;5014205;28;20514;-67
2022/11/25 00:37:12;;;;;;;2.70;2.13;;;2.90;98.00;;;;;;5014037;28;20488;-67
2022/11/25 00:39:39;;;;;;;2.57;2.27;;;2.80;98.00;;;;;;5014515;28;20459;-66
2022/11/25 00:44:52;;;;;;;2.97;1.83;;;2.70;98.00;;;;;;5014426;28;20470;-66
2022/11/25 00:47:20;;;;;;;1.63;1.57;;;2.70;98.00;;;;;;5014957;28;20459;-66
2022/11/25 00:49:49;;;;;;;2.93;2.03;;;2.70;98.00;;;;;;5014186;28;20484;-66
2022/11/25 00:52:18;;;;;;;2.33;2.13;;;2.80;98.00;;;;;;5013776;28;20519;-66
2022/11/25 00:54:46;;;;;;;3.20;2.27;;;3.00;98.00;;;;;;5014035;28;20464;-66
2022/11/25 00:57:14;;;;;;;3.87;2.63;;;3.10;98.00;;;;;;5014079;28;20497;-66
2022/11/25 00:59:41;;;;;;;2.50;1.73;;;3.10;98.00;;;;;;5013995;28;20464;-66
2022/11/25 01:02:11;;;;;;;2.30;1.83;;;3.00;98.00;;;;;;5014023;28;20490;-67
2022/11/25 01:04:38;;;;;;;2.33;1.93;;;3.00;98.00;;;;;;5013703;28;20483;-66
2022/11/25 01:07:05;;;;;;;2.43;1.97;;;2.80;98.00;;;;;;5013756;28;21007;-66
2022/11/25 01:09:35;;;;;;;2.90;1.87;;;2.60;98.00;;;;;;5013539;28;20463;-66
2022/11/25 01:12:02;;;;;;;3.17;1.50;;;2.50;98.00;;;;;;5013486;28;20554;-66
2022/11/25 01:14:31;;;;;;;2.80;2.27;;;2.50;98.00;;;;;;5013471;28;20463;-66
2022/11/25 01:16:58;;;;;;;2.50;1.40;;;2.50;98.00;;;;;;5013169;28;20484;-66
2022/11/25 01:19:27;;;;;;;3.00;1.83;;;2.60;98.00;;;;;;5013224;28;20471;-66
2022/11/25 01:21:54;;;;;;;2.40;1.83;;;2.60;98.00;;;;;;5013234;28;20460;-66
2022/11/25 01:24:21;;;;;;;7.27;2.40;;;2.60;98.00;;;;;;5013358;28;20946;-66
2022/11/25 01:26:48;;;;;;;2.83;2.63;;;2.60;98.00;;;;;;5013295;28;20463;-66
2022/11/25 01:29:17;;;;;;;2.73;2.30;;;2.50;98.00;;;;;;5013029;28;20456;-66
2022/11/25 01:31:45;;;;;;;1.73;1.60;;;2.50;98.00;;;;;;5013104;28;20486;-66
2022/11/25 01:34:15;;;;;;;3.30;2.23;;;2.50;98.00;;;;;;5012960;28;20457;-66
2022/11/25 01:36:44;;;;;;;3.60;2.10;;;2.50;98.00;;;;;;5013158;28;20484;-66
2022/11/25 01:39:14;;;;;;;2.07;1.70;;;2.70;98.00;;;;;;5012848;28;20464;-66
2022/11/25 01:41:41;;;;;;;4.53;2.90;;;2.70;98.00;;;;;;5013168;28;20464;-66
2022/11/25 01:44:11;;;;;;;1.87;1.40;;;2.70;98.00;;;;;;5012927;28;20452;-66
2022/11/25 01:46:59;;;;;;;1.60;1.60;;;2.90;98.00;;;;;;5012892;28;20459;-66
2022/11/25 01:49:34;;;;;;;2.30;1.63;;;3.00;98.00;;;;;;5012823;28;20463;-66
2022/11/25 01:52:08;;;;;;;3.10;2.17;;;3.10;98.00;;;;;;5012802;28;20554;-66
2022/11/25 01:54:42;;;;;;;2.63;2.03;;;3.20;98.00;;;;;;5013011;28;20734;-66
2022/11/25 01:57:14;;;;;;;2.90;2.20;;;3.10;98.00;;;;;;5012905;28;20487;-66
2022/11/25 01:59:49;;;;;;;2.47;1.60;;;2.90;98.00;;;;;;5012645;28;20945;-66
2022/11/25 02:02:17;;;;;;;2.17;1.57;;;2.70;98.00;;;;;;5012485;28;20456;-66
2022/11/25 02:04:45;;;;;;;3.23;1.93;;;2.50;98.00;;;;;;4994912;28;20829;-66
2022/11/25 02:07:21;;;;;;;3.60;1.50;;;2.60;98.00;;;;;;5012452;28;20455;-66
2022/11/25 02:09:50;;;;;;;3.00;1.73;;;2.70;98.00;;;;;;5012482;28;20456;-66
2022/11/25 02:12:19;;;;;;;1.70;1.63;;;2.80;98.00;;;;;;5012367;28;20459;-66
2022/11/25 02:14:48;;;;;;;2.63;1.70;;;3.00;98.00;;;;;;5012262;28;20463;-66
2022/11/25 02:17:15;;;;;;;2.93;2.03;;;3.10;98.00;;;;;;5012329;28;20507;-66
2022/11/25 02:19:56;;;;;;;4.13;2.10;;;3.10;98.00;;;;;;4994657;28;20480;-66
2022/11/25 02:22:37;;;;;;;1.97;1.90;;;3.10;98.00;;;;;;5012198;28;20539;-66
2022/11/25 02:25:13;;;;;;;3.00;1.77;;;3.30;98.00;;;;;;5012100;28;20985;-66
2022/11/25 02:27:43;;;;;;;3.20;1.67;;;3.20;98.00;;;;;;5012006;28;20518;-66
2022/11/25 02:30:10;;;;;;;1.83;1.57;;;3.20;98.00;;;;;;5012113;28;20526;-66
2022/11/25 02:32:43;;;;;;;3.20;2.10;;;3.10;98.00;;;;;;5011942;28;20471;-66
2022/11/25 02:35:31;;;;;;;3.40;1.80;;;3.00;98.00;;;;;;5011991;28;20562;-66
2022/11/25 02:38:05;;;;;;;2.13;1.90;;;2.90;98.00;;;;;;5011753;28;20534;-66
2022/11/25 02:40:37;;;;;;;3.07;1.90;;;2.80;98.00;;;;;;5012042;28;21006;-66
2022/11/25 02:43:04;;;;;;;1.50;1.40;;;2.90;98.00;;;;;;5011411;28;20459;-66
2022/11/25 02:45:43;;;;;;;3.43;1.87;;;3.00;98.00;;;;;;5012025;28;20467;-66
2022/11/25 02:48:10;;;;;;;2.00;1.80;;;3.10;98.00;;;;;;5012037;28;20825;-66
2022/11/25 02:50:37;;;;;;;2.00;1.60;;;3.20;98.00;;;;;;5011773;28;20953;-66
2022/11/25 02:53:05;;;;;;;4.67;2.60;;;3.30;98.00;;;;;;5011601;28;20465;-66
2022/11/25 02:55:33;;;;;;;2.30;1.90;;;3.20;98.00;;;;;;5011706;28;20698;-66
2022/11/25 02:58:00;;;;;;;7.27;2.43;;;3.20;98.00;;;;;;5011562;28;20881;-66
2022/11/25 03:00:28;;;;;;;3.37;2.03;;;3.20;98.00;;;;;;5011603;28;20524;-66
2022/11/25 03:02:55;;;;;;;1.83;1.73;;;3.10;98.00;;;;;;5011445;28;20472;-66
2022/11/25 03:05:23;;;;;;;3.23;2.20;;;3.20;98.00;;;;;;5011437;28;21114;-66
2022/11/25 03:07:53;;;;;;;2.37;1.63;;;3.20;98.00;;;;;;5011534;28;20460;-66
2022/11/25 03:10:20;;;;;;;3.73;2.43;;;3.20;98.00;;;;;;5011490;28;20490;-66
2022/11/25 03:12:51;;;;;;;2.60;1.50;;;3.20;98.00;;;;;;5011326;28;20452;-66
2022/11/25 03:15:20;;;;;;;2.13;1.90;;;3.20;98.00;;;;;;4994643;28;20460;-66
2022/11/25 03:17:47;;;;;;;4.70;1.93;;;3.20;98.00;;;;;;4993814;28;20521;-66
2022/11/25 03:20:15;;;;;;;5.00;2.67;;;3.20;98.00;;;;;;5011136;28;20523;-66
2022/11/25 03:22:42;;;;;;;3.97;2.30;;;3.20;98.00;;;;;;5011237;28;20457;-66
2022/11/25 03:25:10;;;;;;;1.80;1.73;;;3.00;98.00;;;;;;5011150;28;20453;-66
2022/11/25 03:27:38;;;;;;;2.93;1.73;;;2.80;98.00;;;;;;5011403;28;20464;-66
2022/11/25 03:30:17;;;;;;;3.50;2.30;;;3.00;98.00;;;;;;5011283;28;20518;-66
2022/11/25 03:32:44;;;;;;;2.43;2.13;;;2.90;98.00;;;;;;5011300;28;20466;-66
2022/11/25 03:35:12;;;;;;;3.83;2.87;;;2.80;98.00;;;;;;5011352;28;20735;-66
2022/11/25 03:37:39;;;;;;;2.57;1.83;;;2.70;98.00;;;;;;5011113;28;20480;-66
2022/11/25 03:40:08;;;;;;;3.33;2.43;;;2.70;98.00;;;;;;5011330;28;20460;-66
2022/11/25 03:42:35;;;;;;;2.50;1.90;;;2.70;98.00;;;;;;5011101;28;20497;-66
2022/11/25 03:45:03;;;;;;;3.20;1.90;;;2.70;98.00;;;;;;5011211;28;20456;-66
2022/11/25 03:47:33;;;;;;;2.50;1.50;;;2.80;98.00;;;;;;5011351;28;20468;-66
2022/11/25 03:50:00;;;;;;;2.70;1.90;;;2.70;98.00;;;;;;5011160;28;20463;-66
2022/11/25 03:52:27;;;;;;;2.03;1.70;;;2.60;98.00;;;;;;5011277;28;20461;-66
2022/11/25 03:54:54;;;;;;;5.07;1.60;;;2.60;98.00;;;;;;5012082;28;20957;-66
2022/11/25 03:57:21;;;;;;;1.90;1.33;;;2.60;98.00;;;;;;5014784;28;20480;-66
2022/11/25 03:59:48;;;;;;;3.90;1.93;;;2.60;98.00;;;;;;5014992;28;20496;-66
2022/11/25 04:02:15;;;;;;;1.70;1.67;;;2.70;98.00;;;;;;5014633;28;20460;-66
2022/11/25 04:04:44;;;;;;;4.70;1.93;;;2.70;98.00;;;;;;5014793;28;20478;-66
2022/11/25 04:07:11;;;;;;;1.43;1.40;;;2.60;98.00;;;;;;5014645;28;20471;-66
2022/11/25 04:09:41;;;;;;;2.90;1.87;;;2.50;98.00;;;;;;5014631;28;20880;-66
2022/11/25 04:14:56;;;;;;;4.83;1.60;;;2.30;98.00;;;;;;5014616;28;20444;-66
2022/11/25 04:17:23;;;;;;;1.70;1.33;;;2.50;98.00;;;;;;5014621;28;20492;-66
2022/11/25 04:19:52;;;;;;;3.73;2.53;;;2.90;98.00;;;;;;5014331;28;20883;-66
2022/11/25 04:22:19;;;;;;;3.40;2.10;;;3.00;98.00;;;;;;5014398;28;20942;-66
2022/11/25 04:24:46;;;;;;;1.93;1.90;;;2.90;98.00;;;;;;5014212;28;20452;-66
2022/11/25 04:27:13;;;;;;;1.60;1.33;;;2.70;98.00;;;;;;5014416;28;20458;-67
2022/11/25 04:29:40;;;;;;;2.10;1.43;;;2.60;98.00;;;;;;5012572;28;20511;-66
2022/11/25 04:32:08;;;;;;;3.13;1.80;;;2.50;98.00;;;;;;5014417;28;20521;-66
2022/11/25 04:34:35;;;;;;;3.40;1.40;;;2.50;98.00;;;;;;5014331;28;20463;-66
2022/11/25 04:37:03;;;;;;;2.93;1.80;;;2.80;98.00;;;;;;5014171;28;20483;-66
2022/11/25 04:39:30;;;;;;;2.63;2.43;;;2.70;98.00;;;;;;5014252;28;20486;-66
2022/11/25 04:44:38;;;;;;;2.70;1.60;;;2.60;98.00;;;;;;5013671;28;20828;-66
2022/11/25 04:47:05;;;;;;;4.30;1.57;;;2.60;98.00;;;;;;5012754;28;20463;-66
2022/11/25 04:49:32;;;;;;;2.30;1.50;;;2.60;98.00;;;;;;5013878;28;20471;-66
2022/11/25 04:51:59;;;;;;;2.30;1.97;;;2.60;98.00;;;;;;5013845;28;20459;-66
2022/11/25 04:54:29;;;;;;;2.47;2.20;;;2.70;98.00;;;;;;5013889;28;20535;-66
2022/11/25 04:56:56;;;;;;;4.70;2.00;;;2.80;98.00;;;;;;5013764;28;20961;-66
2022/11/25 04:59:42;;;;;;;6.83;2.47;;;2.80;98.00;;;;;;5013674;28;20456;-66
2022/11/25 05:02:14;;;;;;;4.40;1.83;;;3.00;98.00;;;;;;5013722;28;20471;-66
2022/11/25 05:04:42;;;;;;;5.20;2.03;;;2.90;98.00;;;;;;5013669;28;20551;-66
2022/11/25 05:07:10;;;;;;;1.70;1.60;;;2.90;98.00;;;;;;5013243;28;20469;-66
2022/11/25 05:09:39;;;;;;;2.60;1.70;;;2.90;98.00;;;;;;5013572;28;20460;-66
2022/11/25 05:12:08;;;;;;;2.97;2.20;;;2.90;98.00;;;;;;5013454;28;20451;-66
2022/11/25 05:14:35;;;;;;;1.77;1.67;;;2.90;98.00;;;;;;5013361;28;20456;-66
2022/11/25 05:17:08;;;;;;;4.63;1.87;;;2.90;98.00;;;;;;5013224;28;20523;-66
2022/11/25 05:19:35;;;;;;;3.10;1.83;;;2.80;98.00;;;;;;5013319;28;20468;-66
2022/11/25 05:22:03;;;;;;;3.73;1.80;;;2.80;98.00;;;;;;5013392;28;20460;-66
2022/11/25 05:24:30;;;;;;;1.40;1.40;;;2.80;98.00;;;;;;5013558;28;20949;-66
2022/11/25 05:26:59;;;;;;;5.67;2.27;;;2.90;98.00;;;;;;5013377;28;20464;-66
2022/11/25 05:29:26;;;;;;;2.23;1.70;;;2.90;98.00;;;;;;5013350;28;20453;-66
2022/11/25 05:31:53;;;;;;;3.20;2.03;;;2.80;98.00;;;;;;5012068;28;20510;-66
2022/11/25 05:34:20;;;;;;;5.90;1.73;;;2.80;98.00;;;;;;5013198;28;20456;-66
2022/11/25 05:36:47;;;;;;;3.77;2.20;;;2.80;98.00;;;;;;5013011;28;20821;-66
2022/11/25 05:39:14;;;;;;;3.03;1.73;;;2.70;98.00;;;;;;5012909;28;20464;-66
2022/11/25 05:41:41;;;;;;;5.07;1.77;;;2.80;98.00;;;;;;5012988;28;20949;-66
2022/11/25 05:44:09;;;;;;;3.23;1.53;;;2.70;98.00;;;;;;5012831;28;20817;-66
2022/11/25 05:46:37;;;;;;;13.83;2.20;;;2.60;98.00;;;;;;5012894;28;20460;-66
2022/11/25 05:49:04;;;;;;;3.10;2.20;;;2.60;98.00;;;;;;5012727;28;20974;-66
2022/11/25 05:51:31;;;;;;;2.23;1.90;;;2.50;98.00;;;;;;5013098;28;20487;-66
2022/11/25 05:53:58;;;;;;;2.20;1.93;;;2.50;98.00;;;;;;5012606;28;20805;-67
2022/11/25 05:56:25;;;;;;;7.73;2.73;;;2.60;98.00;;;;;;5012773;28;20461;-66
2022/11/25 05:58:53;;;;;;;3.27;2.10;;;2.80;98.00;;;;;;5012464;28;20998;-66
2022/11/25 06:01:22;;;;;;;3.03;2.20;;;2.90;98.00;;;;;;5012535;28;20518;-67
2022/11/25 06:03:49;;;;;;;2.83;2.00;;;2.70;98.00;;;;;;5012507;28;20471;-66
2022/11/25 06:06:17;;;;;;;4.40;2.50;;;2.60;98.00;;;;;;5012438;28;20907;-66
2022/11/25 06:08:45;;;;;;;2.10;1.90;;;2.60;98.00;;;;;;5012419;28;20461;-66
2022/11/25 06:11:13;;;;;;;1.93;1.83;;;2.60;98.00;;;;;;5012345;28;20645;-66
2022/11/25 06:13:42;;;;;;;1.63;1.53;;;2.50;98.00;;;;;;5012371;28;20502;-67
2022/11/25 06:16:11;;;;;;;1.80;1.80;;;2.40;98.00;;;;;;5012501;28;20550;-66
2022/11/25 06:18:40;;;;;;;2.77;1.60;;;2.30;98.00;;;;;;5012107;28;20841;-66
2022/11/25 06:21:08;;;;;;;2.03;1.90;;;2.30;98.00;;;;;;5012268;28;20472;-66
2022/11/25 06:23:36;;;;;;;3.10;1.90;;;2.20;98.00;;;;;;5012354;28;20459;-66
2022/11/25 06:26:06;;;;;;;2.20;1.73;;;2.10;98.00;;;;;;5012979;28;20483;-66
2022/11/25 06:28:33;;;;;;;1.60;1.50;;;2.00;98.00;;;;;;5011794;28;20461;-66
2022/11/25 06:31:06;;;;;;;2.23;1.50;;;2.00;98.00;;;;;;5011623;28;20477;-66
2022/11/25 06:33:33;;;;;;;2.17;1.80;;;2.00;98.00;;;;;;5012802;28;20992;-66
2022/11/25 06:36:12;;;;;;;2.07;1.77;;;2.10;98.00;;;;;;5012166;28;20467;-67
2022/11/25 06:38:39;;;;;;;4.70;2.20;;;2.20;98.00;;;;;;5011948;28;20515;-66
2022/11/25 06:41:06;;;;;;;3.00;2.03;;;2.10;98.00;;;;;;5011937;28;20990;-66
2022/11/25 06:43:33;;;;;;;1.77;1.60;;;2.10;98.00;;;;;;5010697;28;20594;-66
2022/11/25 06:46:05;;;;;;;2.33;1.83;;;2.00;98.00;;;;;;5010675;28;20460;-66
2022/11/25 06:48:32;;;;;;;5.27;2.60;;;2.10;98.00;;;;;;5011777;28;20970;-66
2022/11/25 06:51:00;;;;;;;6.00;1.57;;;2.10;98.00;;;;;;5011796;28;20463;-66
2022/11/25 06:53:30;;;;;;;2.20;1.97;;;2.00;98.00;;;;;;5011757;28;20467;-66
2022/11/25 06:56:05;;;;;;;2.50;2.37;;;2.00;98.00;;;;;;5011814;28;20467;-63
2022/11/25 06:58:33;;;;;;;3.57;2.40;;;2.00;98.00;;;;;;5011518;28;20482;-63
2022/11/25 07:01:03;;;;;;;2.60;1.90;;;2.10;98.00;;;;;;5011566;28;20994;-63
2022/11/25 07:03:30;;;;;;;9.60;2.20;;;2.10;98.00;;;;;;5010394;28;20514;-63
2022/11/25 07:05:58;;;;;;;2.17;1.50;;;2.10;98.00;;;;;;5011795;28;20490;-63
2022/11/25 07:08:25;;;;;;;2.37;1.80;;;2.10;98.00;;;;;;5011709;28;20452;-62
2022/11/25 07:10:53;;;;;;;5.50;2.33;;;2.00;98.00;;;;;;5011675;28;20464;-63
2022/11/25 07:13:22;;;;;;;6.03;1.97;;;2.00;98.00;;;;;;5011420;28;20472;-63
2022/11/25 07:15:50;;;;;;;1.53;1.27;;;2.20;98.00;;;;;;5011659;28;20463;-63
2022/11/25 07:18:17;;;;;;;2.33;1.83;;;2.30;98.00;;;;;;5011534;28;20538;-62
2022/11/25 07:20:44;;;;;;;1.40;1.40;;;2.20;98.00;;;;;;5011318;28;20475;-63
2022/11/25 07:23:11;;;;;;;4.23;2.57;;;2.20;98.00;;;;;;5011306;28;20976;-63
2022/11/25 07:25:38;;;;;;;1.80;1.67;;;2.10;98.00;;;;;;5011350;28;20760;-63
2022/11/25 07:28:06;;;;;;;2.13;1.97;;;2.10;98.00;;;;;;5011313;28;20455;-63
2022/11/25 07:30:33;;;;;;;4.17;2.00;;;2.10;98.00;;;;;;5015505;28;20471;-63
2022/11/25 07:33:00;;;;;;;8.60;1.80;;;2.30;98.00;;;;;;5015206;28;20447;-63
2022/11/25 07:35:27;;;;;;;1.60;1.60;;;2.40;98.00;;;;;;5015268;28;20842;-63
2022/11/25 07:37:54;;;;;;;1.60;1.57;;;2.50;98.00;;;;;;5011176;28;20545;-63
2022/11/25 07:40:22;;;;;;;4.10;2.50;;;2.70;98.00;;;;;;5014327;28;20521;-63
2022/11/25 07:42:49;;;;;;;3.53;2.30;;;2.70;98.00;;;;;;5015063;28;20452;-63
2022/11/25 07:45:17;;;;;;;5.20;2.17;;;2.90;98.00;;;;;;5014769;28;20463;-63
2022/11/25 07:47:44;;;;;;;8.17;2.70;;;2.80;98.00;;;;;;5015042;28;20963;-63
2022/11/25 07:50:11;;;;;;;4.73;2.40;;;2.80;98.00;;;;;;5014945;28;20459;-62
2022/11/25 07:52:40;;;;;;;3.10;2.47;;;2.80;98.00;;;;;;5015043;28;20456;-63
2022/11/25 07:55:08;;;;;;;3.57;2.13;;;3.00;98.00;;;;;;5014877;28;20566;-63
2022/11/25 07:57:35;;;;;;;4.47;2.30;;;3.00;98.00;;;;;;4997844;28;20462;-63
2022/11/25 08:00:03;;;;;;;4.83;2.47;;;3.20;98.00;;;;;;5014884;28;20961;-63
2022/11/25 08:02:32;;;;;;;2.63;1.90;;;3.40;98.00;;;;;;5015061;28;20858;-63
2022/11/25 08:04:59;;;;;;;3.17;2.37;;;3.60;98.00;;;;;;5014990;28;20469;-63
2022/11/25 08:07:26;;;;;;;27.63;2.17;;;3.80;98.00;;;;;;5015120;28;20455;-63
2022/11/25 08:09:53;;;;;;;2.13;1.90;;;3.80;98.00;;;;;;5014918;28;20463;-63
2022/11/25 08:12:20;;;;;;;3.00;2.13;;;3.90;98.00;;;;;;5014695;28;20460;-63
2022/11/25 08:14:47;;;;;;;1.97;1.77;;;3.90;98.00;;;;;;5014591;28;20459;-63
2022/11/25 08:17:14;;;;;;;5.43;2.10;;;3.80;98.00;;;;;;4997253;28;20500;-63
2022/11/25 08:19:42;;;;;;;5.83;3.60;;;3.80;98.00;;;;;;5014159;28;20514;-63
2022/11/25 08:22:09;;;;;;;5.33;2.17;;;3.80;98.00;;;;;;5014329;28;21011;-63
2022/11/25 08:24:36;;;;;;;3.40;2.63;;;3.60;98.00;;;;;;5014425;28;20455;-63
2022/11/25 08:27:03;;;;;;;4.10;3.07;;;3.60;98.00;;;;;;5014249;28;20454;-63
2022/11/25 08:29:30;;;;;;;3.77;2.00;;;3.70;98.00;;;;;;5014515;28;21085;-63
2022/11/25 08:31:58;;;;;;;4.23;2.67;;;3.70;98.00;;;;;;5014341;28;20518;-63
2022/11/25 08:34:28;;;;;;;3.40;1.87;;;3.80;98.00;;;;;;5014069;28;20517;-63
2022/11/25 08:36:56;;;;;;;3.97;2.60;;;3.90;98.00;;;;;;5014175;28;20457;-63
2022/11/25 08:39:26;;;;;;;4.27;2.93;;;3.80;98.00;;;;;;5014236;28;21120;-62
2022/11/25 08:41:53;;;;;;;5.13;3.03;;;3.90;98.00;;;;;;5013567;28;20551;-63
2022/11/25 08:44:20;;;;;;;5.00;2.43;;;4.00;98.00;;;;;;5014102;28;20458;-64
2022/11/25 08:46:47;;;;;;;2.97;1.70;;;4.20;98.00;;;;;;5014072;28;20466;-63
2022/11/25 08:49:16;;;;;;;1.70;1.47;;;6.00;98.00;;;;;;5014044;28;20456;-65
2022/11/25 08:51:44;;;;;;;5.10;2.80;;;7.30;98.00;;;;;;4996814;28;20487;-64
2022/11/25 08:54:13;;;;;;;8.17;2.93;;;7.60;98.00;;;;;;5013752;28;20463;-64
2022/11/25 08:56:42;;;;;;;4.30;2.37;;;7.40;98.00;;;;;;5014445;28;20484;-64
2022/11/25 08:59:09;;;;;;;4.07;2.67;;;7.00;98.00;;;;;;5014290;28;20540;-63
2022/11/25 09:01:36;;;;;;;5.20;2.83;;;6.60;98.00;;;;;;5014567;28;20460;-62
2022/11/25 09:04:05;;;;;;;5.03;2.83;;;6.30;98.00;;;;;;5013623;28;20473;-64
2022/11/25 09:06:32;;;;;;;5.40;3.37;;;6.00;98.00;;;;;;5013574;28;20460;-63
2022/11/25 09:09:00;;;;;;;7.43;3.27;;;5.90;98.00;;;;;;5013352;28;20460;-64
2022/11/25 09:11:29;;;;;;;3.77;2.50;;;5.70;98.00;;;;;;5013487;28;20550;-64
2022/11/25 09:13:56;;;;;;;8.93;2.50;;;5.90;98.00;;;;;;5013483;28;20460;-61
2022/11/25 09:16:23;;;;;;;6.07;2.90;;;6.00;98.00;;;;;;5013593;28;20475;-63
2022/11/25 09:18:50;;;;;;;2.70;2.23;;;6.10;98.00;;;;;;5013185;28;20888;-63
2022/11/25 09:21:18;;;;;;;5.13;2.90;;;6.00;98.00;;;;;;4996035;28;20540;-63
2022/11/25 09:23:46;;;;;;;4.10;3.30;;;6.00;98.00;;;;;;5013162;28;20461;-64
2022/11/25 09:26:22;;;;;;;6.33;2.87;;;5.90;98.00;;;;;;5015617;28;20463;-64
2022/11/25 09:28:50;;;;;;;4.47;2.87;;;5.90;98.00;;;;;;5021411;28;20866;-64
2022/11/25 09:31:18;;;;;;;3.77;2.90;;;5.80;98.00;;;;;;5015814;28;20463;-63
2022/11/25 09:33:46;;;;;;;5.23;2.40;;;5.90;98.00;;;;;;5012914;28;20471;-63
2022/11/25 09:36:16;;;;;;;5.07;2.47;;;6.00;98.00;;;;;;5013039;28;20957;-63
2022/11/25 09:38:43;;;;;;;3.30;2.63;;;6.00;98.00;;;;;;5012841;28;20533;-64
2022/11/25 09:47:15;;;;;;;4.33;2.70;;;5.90;98.00;;;;;;4997695;28;20538;-63
2022/11/25 09:49:59;;;;;;;5.40;2.30;;;5.90;98.00;;;;;;5012777;28;20495;-63
2022/11/25 09:52:36;;;;;;;2.63;2.30;;;5.90;98.00;;;;;;5011729;28;20518;-63
2022/11/25 09:55:06;;;;;;;5.07;2.80;;;6.00;98.00;;;;;;4996318;28;20462;-64
2022/11/25 09:57:44;;;;;;;4.60;2.17;;;6.10;98.00;;;;;;5013317;28;20464;-63
2022/11/25 10:00:17;;;;;;;5.07;2.80;;;6.10;98.00;;;;;;5013401;28;20545;-63
2022/11/25 10:02:55;;;;;;;8.20;2.50;;;6.00;98.00;;;;;;5013264;28;20464;-64
2022/11/25 10:05:27;;;;;;;3.20;2.40;;;6.20;98.00;;;;;;5013377;28;20458;-64
2022/11/25 10:08:01;;;;;;;2.80;2.30;;;6.30;98.00;;;;;;4995984;28;20461;-64
2022/11/25 10:10:31;;;;;;;6.17;3.70;;;6.30;98.00;;;;;;5013333;28;20494;-63
2022/11/25 10:12:59;;;;;;;4.40;2.40;;;6.40;98.00;;;;;;5013146;28;20463;-64
2022/11/25 10:15:32;;;;;;;3.77;2.37;;;6.40;98.00;;;;;;5012814;28;20461;-63
2022/11/25 10:18:04;;;;;;;5.20;2.75;;;6.40;98.00;;;;;;5013166;28;20462;-64
2022/11/25 10:20:35;;;;;;;3.80;2.80;;;6.50;98.00;;;;;;5012766;28;20549;-64
2022/11/25 10:23:05;;;;;;;5.50;2.17;;;6.50;98.00;;;;;;5018742;28;20834;-63
2022/11/25 10:25:37;;;;;;;4.07;2.40;;;6.60;98.00;;;;;;5012382;28;20821;-62
2022/11/25 10:28:16;;;;;;;2.63;2.50;;;6.80;98.00;;;;;;5012880;28;20463;-64
2022/11/25 10:30:50;;;;;;;3.53;2.40;;;7.00;98.00;;;;;;5012677;28;20453;-64
2022/11/25 10:33:20;;;;;;;6.50;2.87;;;7.00;98.00;;;;;;5009783;28;20482;-64
2022/11/25 10:35:51;;;;;;;2.80;2.23;;;7.00;98.00;;;;;;5012893;28;21230;-64
2022/11/25 10:38:23;;;;;;;4.80;3.23;;;7.00;98.00;;;;;;5012548;28;20468;-64
2022/11/25 10:40:52;;;;;;;3.17;2.80;;;6.90;98.00;;;;;;5011743;28;20452;-64
2022/11/25 10:43:19;;;;;;;8.17;2.97;;;6.80;98.00;;;;;;5012557;28;20469;-63
2022/11/25 10:45:54;;;;;;;2.73;2.30;;;7.00;98.00;;;;;;5020487;28;20459;-63
2022/11/25 10:48:35;;;;;;;4.20;2.70;;;7.10;98.00;;;;;;5031771;28;20446;-63
2022/11/25 10:51:13;;;;;;;9.37;3.17;;;7.10;98.00;;;;;;5031591;28;20481;-64
2022/11/25 10:53:40;;;;;;;5.57;2.83;;;7.30;98.00;;;;;;5031637;28;20463;-64
2022/11/25 10:56:17;;;;;;;3.97;2.00;;;7.40;98.00;;;;;;5013924;28;20456;-64
2022/11/25 10:58:45;;;;;;;6.20;3.20;;;7.30;98.00;;;;;;5031489;28;21123;-63
2022/11/25 11:01:22;;;;;;;5.00;2.13;;;7.30;98.00;;;;;;5031393;28;20455;-64
2022/11/25 11:03:53;;;;;;;2.73;2.23;;;7.50;98.00;;;;;;5030974;28;20463;-63
2022/11/25 11:06:37;;;;;;;5.20;3.13;;;7.60;98.00;;;;;;5013911;28;20468;-64
2022/11/25 11:09:04;;;;;;;5.63;2.77;;;7.50;98.00;;;;;;5031227;28;20983;-64
2022/11/25 11:11:31;;;;;;;6.10;2.73;;;7.50;98.00;;;;;;5031165;28;20455;-64
2022/11/25 11:14:13;;;;;;;5.67;2.77;;;7.40;98.00;;;;;;5031129;28;20801;-64
2022/11/25 11:16:51;;;;;;;6.70;2.90;;;7.40;98.00;;;;;;5031194;28;20550;-63
2022/11/25 11:19:23;;;;;;;6.43;2.97;;;7.40;98.00;;;;;;5030784;28;20505;-64
2022/11/25 11:21:51;;;;;;;5.23;3.00;;;7.50;98.00;;;;;;5031113;28;20547;-63
2022/11/25 11:24:27;;;;;;;5.40;2.70;;;7.60;98.00;;;;;;5031171;28;20823;-63
2022/11/25 11:27:06;;;;;;;4.50;2.77;;;7.60;98.00;;;;;;5031074;28;20517;-63
2022/11/25 11:29:35;;;;;;;6.73;2.80;;;7.60;98.00;;;;;;5030806;28;20515;-63
2022/11/25 11:32:05;;;;;;;3.00;2.17;;;7.50;98.00;;;;;;5030978;28;20475;-64
2022/11/25 11:34:55;;;;;;;4.10;2.67;;;7.60;98.00;;;;;;5030995;28;20459;-63
2022/11/25 11:37:41;;;;;;;5.83;3.27;;;7.60;98.00;;;;;;5030651;28;20475;-63
2022/11/25 11:40:31;;;;;;;5.13;3.20;;;7.70;98.00;;;;;;5030939;28;20576;-64
2022/11/25 11:43:19;;;;;;;5.00;2.90;;;7.90;98.00;;;;;;5031152;28;20681;-63
2022/11/25 11:46:00;;;;;;;4.23;2.50;;;8.00;98.00;;;;;;5031090;28;20511;-64
2022/11/25 11:48:38;;;;;;;6.27;2.87;;;8.10;98.00;;;;;;5031037;28;20459;-63
2022/11/25 11:51:16;;;;;;;4.23;3.07;;;8.00;98.00;;;;;;5030905;28;20464;-64
2022/11/25 11:53:54;;;;;;;4.70;2.80;;;7.90;98.00;;;;;;5031118;28;20515;-64
2022/11/25 11:56:33;;;;;;;5.03;3.10;;;7.90;98.00;;;;;;5030985;28;20943;-63
2022/11/25 11:59:12;;;;;;;9.53;3.70;;;7.80;98.00;;;;;;5030608;28;20550;-63
2022/11/25 12:01:54;;;;;;;9.83;4.17;;;7.90;98.00;;;;;;5030757;28;20469;-64
2022/11/25 12:04:29;;;;;;;5.80;2.37;;;8.00;98.00;;;;;;5031872;28;20462;-64
2022/11/25 12:07:03;;;;;;;5.43;2.70;;;8.00;98.00;;;;;;5030968;28;21025;-64
2022/11/25 12:09:33;;;;;;;6.00;3.40;;;7.90;98.00;;;;;;5032134;28;20491;-64
2022/11/25 12:12:04;;;;;;;3.40;2.23;;;7.70;98.00;;;;;;5013643;28;20459;-64
2022/11/25 12:14:43;;;;;;;6.27;3.57;;;7.70;98.00;;;;;;5030664;28;20876;-64
2022/11/25 12:17:16;;;;;;;4.70;2.87;;;7.70;98.00;;;;;;5033661;28;20534;-64
2022/11/25 12:19:56;;;;;;;7.77;3.33;;;7.60;98.00;;;;;;5034103;28;20494;-64
2022/11/25 12:22:28;;;;;;;9.10;3.90;;;7.60;98.00;;;;;;5034279;28;20465;-64
2022/11/25 12:25:04;;;;;;;7.70;3.77;;;7.60;98.00;;;;;;5034219;28;20456;-65
2022/11/25 12:27:37;;;;;;;7.30;2.83;;;7.60;98.00;;;;;;5034224;28;20464;-65
2022/11/25 12:30:06;;;;;;;3.13;1.93;;;7.60;98.00;;;;;;5034131;28;20984;-64
2022/11/25 12:32:52;;;;;;;3.90;2.67;;;8.20;98.00;;;;;;5034276;28;20528;-66
2022/11/25 12:35:36;;;;;;;6.83;3.17;;;9.10;98.00;;;;;;5033712;28;20536;-65
2022/11/25 12:38:11;;;;;;;5.03;2.80;;;9.50;98.00;;;;;;5034515;28;20490;-64
2022/11/25 12:40:46;;;;;;;5.10;3.07;;;9.40;98.00;;;;;;5012183;28;21113;-65
2022/11/25 12:43:25;;;;;;;6.27;3.00;;;9.20;98.00;;;;;;4994404;28;20471;-65
2022/11/25 12:46:05;;;;;;;4.27;2.33;;;9.10;98.00;;;;;;5010437;28;20463;-65
2022/11/25 12:48:34;;;;;;;8.80;3.33;;;9.00;98.00;;;;;;5011811;28;20554;-65
2022/11/25 12:51:10;;;;;;;8.30;4.23;;;8.90;98.00;;;;;;4992117;28;20471;-65
2022/11/25 12:53:45;;;;;;;8.57;3.33;;;8.90;98.00;;;;;;5011888;28;20962;-65
2022/11/25 12:56:19;;;;;;;11.60;3.90;;;8.70;98.00;;;;;;5011990;28;20485;-65
2022/11/25 12:58:55;;;;;;;4.10;2.93;;;8.60;98.00;;;;;;5011933;28;20477;-65
2022/11/25 13:01:36;;;;;;;7.00;3.60;;;8.60;98.00;;;;;;5011611;28;20542;-67
2022/11/25 13:04:29;;;;;;;3.60;2.80;;;8.60;98.00;;;;;;4993909;28;20470;-64
2022/11/25 13:07:26;;;;;;;5.50;2.70;;;8.50;98.00;;;;;;5011719;28;20465;-65
2022/11/25 13:10:21;;;;;;;5.90;3.07;;;8.40;98.00;;;;;;5011305;28;20466;-66
2022/11/25 13:13:04;;;;;;;5.07;2.33;;;8.40;98.00;;;;;;4979870;28;20498;-65
2022/11/25 13:15:51;;;;;;;4.10;2.00;;;8.40;98.00;;;;;;5011504;28;20837;-65
2022/11/25 13:18:22;;;;;;;5.10;3.10;;;8.30;98.00;;;;;;5011550;28;20792;-65
2022/11/25 13:20:51;;;;;;;3.30;2.53;;;8.30;98.00;;;;;;5011144;28;20505;-65
2022/11/25 13:23:27;;;;;;;3.90;2.60;;;8.20;98.00;;;;;;5011576;28;20461;-65
2022/11/25 13:26:35;;;;;;;4.27;2.80;;;8.10;98.00;;;;;;4994516;28;20456;-67
2022/11/25 13:29:27;;;;;;;4.93;2.53;;;8.00;98.00;;;;;;5007245;28;20550;-65